Time;durP1;ratioP1;P1;durP2;ratioP2;P2;SDS_P1;SDS_P2;PMS_P1;PMS_P2;Temp;Humidity;BMP_temperature;BMP_pressure;BME280_temperature;BME280_humidity;BME280_pressure;Samples;Min_cycle;Max_cycle;Signal;HPM_P1;HPM_P2
2021/11/03 00:02:07;;;;;;;27.63;25.17;;;3.60;99.90;;;;;;5034240;28;20559;-67
2021/11/03 00:04:36;;;;;;;27.17;25.03;;;3.50;99.90;;;;;;5039871;28;20574;-67
2021/11/03 00:07:04;;;;;;;27.53;25.40;;;3.50;99.90;;;;;;5044526;28;20508;-67
2021/11/03 00:09:31;;;;;;;27.47;25.57;;;3.50;99.90;;;;;;5042915;28;20983;-67
2021/11/03 00:11:59;;;;;;;27.03;25.03;;;3.60;99.90;;;;;;5039493;28;20470;-67
2021/11/03 00:14:26;;;;;;;28.53;26.40;;;3.70;99.90;;;;;;5037489;28;20465;-67
2021/11/03 00:16:53;;;;;;;28.37;25.97;;;3.80;99.90;;;;;;5040627;28;21230;-67
2021/11/03 00:19:20;;;;;;;26.70;24.20;;;3.90;99.90;;;;;;5035288;28;20806;-67
2021/11/03 00:21:47;;;;;;;26.97;24.70;;;3.90;99.90;;;;;;5044966;28;20467;-67
2021/11/03 00:24:14;;;;;;;28.73;26.10;;;3.90;99.90;;;;;;5038460;28;20776;-67
2021/11/03 00:26:40;;;;;;;28.33;25.70;;;3.90;99.90;;;;;;5036925;28;21318;-67
2021/11/03 00:29:09;;;;;;;27.10;24.40;;;3.80;99.90;;;;;;5040984;28;20472;-67
2021/11/03 00:31:36;;;;;;;28.73;26.13;;;3.80;99.90;;;;;;5034105;28;20470;-70
2021/11/03 00:34:03;;;;;;;29.67;26.43;;;3.80;99.90;;;;;;5040948;28;20459;-67
2021/11/03 00:36:29;;;;;;;27.87;25.07;;;3.70;99.90;;;;;;5038309;28;20468;-67
2021/11/03 00:38:56;;;;;;;29.30;26.40;;;3.60;99.90;;;;;;5040274;28;20506;-67
2021/11/03 00:41:23;;;;;;;31.50;26.47;;;3.60;99.90;;;;;;5041920;28;20467;-67
2021/11/03 00:43:52;;;;;;;28.23;26.03;;;3.60;99.90;;;;;;5039978;28;20490;-67
2021/11/03 00:46:21;;;;;;;29.63;25.67;;;3.50;99.90;;;;;;5042459;28;20491;-67
2021/11/03 00:48:47;;;;;;;27.73;25.37;;;3.50;99.90;;;;;;5038735;28;20462;-69
2021/11/03 00:51:14;;;;;;;28.97;26.30;;;3.50;99.90;;;;;;5040320;28;20463;-68
2021/11/03 00:53:41;;;;;;;27.83;25.43;;;3.50;99.90;;;;;;5038708;28;20456;-67
2021/11/03 00:56:09;;;;;;;26.57;24.67;;;3.50;99.90;;;;;;5040048;28;20559;-68
2021/11/03 00:58:36;;;;;;;27.67;25.20;;;3.40;99.90;;;;;;5044273;28;21019;-67
2021/11/03 01:01:04;;;;;;;28.07;25.37;;;3.30;99.90;;;;;;5051482;28;20463;-67
2021/11/03 01:03:32;;;;;;;26.93;24.67;;;3.20;99.90;;;;;;5042828;28;20463;-67
2021/11/03 01:05:59;;;;;;;27.70;25.60;;;3.20;99.90;;;;;;5040405;28;20980;-67
2021/11/03 01:08:26;;;;;;;28.37;25.97;;;3.10;99.90;;;;;;5047695;28;20479;-67
2021/11/03 01:10:54;;;;;;;30.67;26.60;;;3.10;99.90;;;;;;5047688;28;20559;-67
2021/11/03 01:13:24;;;;;;;26.93;24.77;;;3.10;99.90;;;;;;5040940;28;20466;-68
2021/11/03 01:15:52;;;;;;;27.83;25.33;;;3.20;99.90;;;;;;5044990;28;20466;-67
2021/11/03 01:18:19;;;;;;;28.17;26.07;;;3.20;99.90;;;;;;5041478;28;20485;-68
2021/11/03 01:20:48;;;;;;;28.40;26.00;;;3.30;99.90;;;;;;5038275;28;20464;-69
2021/11/03 01:23:15;;;;;;;28.20;25.70;;;3.30;99.90;;;;;;5046906;28;20461;-69
2021/11/03 01:25:42;;;;;;;29.13;26.30;;;3.30;99.90;;;;;;5043247;28;20491;-68
2021/11/03 01:28:09;;;;;;;27.40;25.00;;;3.30;99.90;;;;;;5042695;28;20477;-68
2021/11/03 01:30:36;;;;;;;28.20;25.70;;;3.30;99.90;;;;;;5044980;28;20468;-69
2021/11/03 01:33:03;;;;;;;26.13;23.67;;;3.30;99.90;;;;;;5042653;28;21284;-68
2021/11/03 01:35:31;;;;;;;27.30;25.17;;;3.30;99.90;;;;;;5033000;28;20977;-68
2021/11/03 01:38:00;;;;;;;26.70;24.73;;;3.30;99.90;;;;;;5046740;28;20543;-68
2021/11/03 01:40:29;;;;;;;26.40;24.20;;;3.30;99.90;;;;;;5044767;28;20543;-68
2021/11/03 01:42:57;;;;;;;28.00;25.60;;;3.30;99.90;;;;;;5040563;28;21015;-69
2021/11/03 01:45:26;;;;;;;27.07;24.60;;;3.30;99.90;;;;;;5041162;28;20479;-68
2021/11/03 01:47:55;;;;;;;27.00;24.33;;;3.40;99.90;;;;;;5043526;28;20468;-68
2021/11/03 01:50:36;;;;;;;25.97;24.03;;;3.40;99.90;;;;;;5041166;28;20463;-68
2021/11/03 01:53:09;;;;;;;26.57;24.60;;;3.50;99.90;;;;;;5043022;28;20895;-68
2021/11/03 01:55:41;;;;;;;26.97;25.07;;;3.50;99.90;;;;;;5037401;28;20468;-69
2021/11/03 01:58:13;;;;;;;27.07;24.83;;;3.40;99.90;;;;;;5043695;28;21044;-69
2021/11/03 02:00:43;;;;;;;27.30;25.17;;;3.40;99.90;;;;;;5045902;28;20483;-68
2021/11/03 02:03:12;;;;;;;26.07;24.37;;;3.50;99.90;;;;;;5042145;28;20462;-70
2021/11/03 02:05:44;;;;;;;26.07;24.27;;;3.50;99.90;;;;;;5041502;28;20814;-68
2021/11/03 02:08:13;;;;;;;24.93;23.40;;;3.60;99.90;;;;;;5037647;28;20496;-68
2021/11/03 02:10:40;;;;;;;26.30;24.43;;;3.70;99.90;;;;;;5041211;28;20464;-69
2021/11/03 02:13:11;;;;;;;24.50;23.00;;;3.70;99.90;;;;;;5035328;28;20461;-68
2021/11/03 02:15:38;;;;;;;25.43;23.73;;;3.60;99.90;;;;;;5038167;28;20460;-68
2021/11/03 02:18:07;;;;;;;27.97;25.57;;;3.60;99.90;;;;;;5042363;28;20483;-68
2021/11/03 02:20:34;;;;;;;25.53;23.93;;;3.60;99.90;;;;;;5042650;28;20460;-69
2021/11/03 02:23:10;;;;;;;25.73;23.40;;;3.60;99.90;;;;;;5036223;28;20468;-68
2021/11/03 02:25:46;;;;;;;26.47;24.37;;;3.70;99.90;;;;;;5042591;28;20833;-68
2021/11/03 02:28:15;;;;;;;25.03;23.37;;;3.70;99.90;;;;;;5042476;28;20504;-69
2021/11/03 02:30:43;;;;;;;25.37;23.63;;;3.80;99.90;;;;;;5042521;28;20545;-68
2021/11/03 02:33:13;;;;;;;26.10;24.30;;;3.70;99.90;;;;;;5042342;28;20471;-68
2021/11/03 02:35:41;;;;;;;26.00;24.27;;;3.70;99.90;;;;;;5037771;28;20456;-69
2021/11/03 02:38:08;;;;;;;25.60;24.03;;;3.70;99.90;;;;;;5039181;28;20488;-68
2021/11/03 02:40:46;;;;;;;26.57;24.57;;;3.70;99.90;;;;;;5041918;28;20473;-68
2021/11/03 02:43:18;;;;;;;26.13;24.03;;;3.70;99.90;;;;;;5038652;28;20845;-69
2021/11/03 02:45:48;;;;;;;25.70;23.93;;;3.70;99.90;;;;;;5035843;28;20827;-69
2021/11/03 02:48:15;;;;;;;26.70;24.60;;;3.70;99.90;;;;;;5040515;28;20468;-68
2021/11/03 02:51:05;;;;;;;26.03;23.93;;;3.70;99.90;;;;;;5037827;28;20974;-68
2021/11/03 02:53:34;;;;;;;25.13;23.23;;;3.70;99.90;;;;;;5041462;28;20463;-68
2021/11/03 02:56:02;;;;;;;25.80;23.90;;;3.80;99.90;;;;;;5036904;28;20504;-68
2021/11/03 02:58:29;;;;;;;25.93;23.57;;;3.90;99.90;;;;;;5042136;28;20472;-68
2021/11/03 03:00:57;;;;;;;26.23;23.77;;;4.00;99.90;;;;;;5038619;28;20471;-68
2021/11/03 03:03:24;;;;;;;26.70;24.50;;;4.00;99.90;;;;;;5034853;28;20546;-68
2021/11/03 03:06:02;;;;;;;25.80;23.70;;;4.00;99.90;;;;;;5037951;28;20460;-69
2021/11/03 03:08:29;;;;;;;26.67;24.60;;;4.00;99.90;;;;;;5040889;28;20467;-68
2021/11/03 03:10:56;;;;;;;26.73;24.63;;;4.00;99.90;;;;;;5035294;28;20978;-69
2021/11/03 03:13:24;;;;;;;31.43;24.47;;;4.00;99.90;;;;;;5040869;28;20955;-68
2021/11/03 03:15:51;;;;;;;26.57;24.40;;;4.00;99.90;;;;;;5034243;28;20984;-68
2021/11/03 03:18:18;;;;;;;27.87;25.37;;;4.00;99.90;;;;;;5040376;28;20538;-68
2021/11/03 03:20:45;;;;;;;26.57;24.20;;;4.20;99.90;;;;;;5038233;28;20457;-69
2021/11/03 03:23:11;;;;;;;27.07;24.90;;;4.20;99.90;;;;;;5039608;28;20474;-68
2021/11/03 03:25:41;;;;;;;26.30;23.87;;;4.10;99.90;;;;;;5034787;28;20475;-68
2021/11/03 03:28:08;;;;;;;27.03;24.73;;;4.20;99.90;;;;;;5030735;28;20491;-68
2021/11/03 03:30:36;;;;;;;26.37;24.40;;;4.20;99.90;;;;;;5043439;28;20563;-68
2021/11/03 03:33:03;;;;;;;25.60;23.70;;;4.30;99.90;;;;;;5042760;28;21267;-68
2021/11/03 03:35:30;;;;;;;26.00;23.60;;;4.30;99.90;;;;;;5032824;28;20460;-68
2021/11/03 03:37:57;;;;;;;25.93;23.87;;;4.30;99.90;;;;;;5034553;28;20950;-69
2021/11/03 03:40:23;;;;;;;26.97;23.97;;;4.40;99.90;;;;;;5040980;28;20468;-69
2021/11/03 03:42:51;;;;;;;27.07;24.10;;;4.40;99.90;;;;;;5040659;28;20475;-69
2021/11/03 03:45:18;;;;;;;25.93;23.77;;;4.40;99.90;;;;;;5043391;28;20570;-69
2021/11/03 03:47:46;;;;;;;25.53;23.43;;;4.40;99.90;;;;;;5039664;28;20519;-68
2021/11/03 03:50:14;;;;;;;27.20;23.47;;;4.50;99.90;;;;;;5036392;28;20544;-69
2021/11/03 03:52:42;;;;;;;25.00;22.93;;;4.50;99.90;;;;;;5033272;28;20546;-68
2021/11/03 03:55:11;;;;;;;27.00;24.50;;;4.60;99.90;;;;;;5041112;28;20521;-69
2021/11/03 03:57:38;;;;;;;25.57;23.43;;;4.60;99.90;;;;;;5042817;28;20455;-68
2021/11/03 04:00:10;;;;;;;24.77;22.60;;;4.60;99.90;;;;;;5036411;28;20466;-68
2021/11/03 04:02:37;;;;;;;24.10;22.10;;;4.60;99.90;;;;;;5042593;28;20900;-68
2021/11/03 04:05:07;;;;;;;25.77;23.43;;;4.60;99.90;;;;;;5038879;28;20558;-68
2021/11/03 04:07:33;;;;;;;25.93;23.50;;;4.70;99.90;;;;;;5040585;28;20998;-69
2021/11/03 04:10:00;;;;;;;28.00;24.83;;;4.70;99.90;;;;;;5040929;28;20461;-69
2021/11/03 04:12:27;;;;;;;26.57;24.13;;;4.70;99.90;;;;;;5033816;28;20460;-69
2021/11/03 04:14:54;;;;;;;31.60;24.37;;;4.80;99.90;;;;;;5040732;28;20487;-68
2021/11/03 04:17:21;;;;;;;26.53;23.90;;;4.80;99.90;;;;;;5042239;28;20471;-68
2021/11/03 04:19:48;;;;;;;26.80;24.40;;;4.80;99.90;;;;;;5041912;28;20545;-68
2021/11/03 04:22:16;;;;;;;28.90;23.83;;;4.90;99.90;;;;;;5035850;28;20464;-68
2021/11/03 04:24:43;;;;;;;26.03;23.60;;;4.90;99.90;;;;;;5035757;28;20474;-69
2021/11/03 04:27:11;;;;;;;27.30;25.20;;;4.90;99.90;;;;;;5034742;28;20854;-68
2021/11/03 04:29:38;;;;;;;26.53;23.90;;;4.90;99.90;;;;;;5040509;28;20519;-68
2021/11/03 04:32:05;;;;;;;26.57;24.10;;;5.00;99.90;;;;;;5037724;28;20464;-69
2021/11/03 04:34:33;;;;;;;38.93;25.23;;;5.00;99.90;;;;;;5040793;28;20909;-69
2021/11/03 04:37:00;;;;;;;31.30;25.30;;;4.90;99.90;;;;;;5033468;28;21071;-69
2021/11/03 04:39:28;;;;;;;27.30;24.83;;;4.90;99.90;;;;;;5042275;28;20534;-68
2021/11/03 04:41:55;;;;;;;26.87;24.50;;;5.00;99.90;;;;;;5032815;28;20839;-69
2021/11/03 04:44:22;;;;;;;27.83;25.03;;;5.00;99.90;;;;;;5044844;28;20456;-69
2021/11/03 04:46:49;;;;;;;27.60;24.77;;;5.00;99.90;;;;;;5034701;28;21081;-68
2021/11/03 04:49:17;;;;;;;25.90;23.13;;;5.00;99.90;;;;;;5036760;28;20470;-68
2021/11/03 04:51:43;;;;;;;29.30;25.93;;;4.90;99.90;;;;;;5040757;28;20452;-68
2021/11/03 04:54:11;;;;;;;27.30;25.20;;;5.00;99.90;;;;;;5040608;28;20461;-68
2021/11/03 04:56:39;;;;;;;28.17;25.57;;;5.00;99.90;;;;;;5041526;28;20467;-68
2021/11/03 04:59:08;;;;;;;27.53;25.10;;;5.00;99.90;;;;;;5037822;28;20455;-67
2021/11/03 05:01:35;;;;;;;27.13;25.07;;;5.00;99.90;;;;;;5037408;28;20464;-68
2021/11/03 05:04:02;;;;;;;28.90;26.30;;;5.00;99.90;;;;;;5037688;28;20982;-68
2021/11/03 05:06:33;;;;;;;29.27;26.57;;;5.00;99.90;;;;;;5035493;28;20480;-68
2021/11/03 05:09:01;;;;;;;27.53;25.37;;;5.10;99.90;;;;;;5035105;28;20464;-69
2021/11/03 05:11:28;;;;;;;28.70;26.10;;;5.10;99.90;;;;;;5042249;28;20463;-69
2021/11/03 05:13:57;;;;;;;28.53;25.73;;;5.10;99.90;;;;;;5040574;28;20957;-68
2021/11/03 05:16:26;;;;;;;30.10;27.10;;;5.10;99.90;;;;;;5034116;28;20468;-69
2021/11/03 05:18:54;;;;;;;27.50;25.30;;;5.10;99.90;;;;;;5040265;28;20533;-69
2021/11/03 05:21:21;;;;;;;32.03;26.10;;;5.20;99.90;;;;;;5036617;28;20455;-68
2021/11/03 05:23:48;;;;;;;27.43;25.30;;;5.20;99.90;;;;;;5041095;28;20818;-68
2021/11/03 05:26:19;;;;;;;29.03;26.10;;;5.20;99.90;;;;;;5037998;28;20468;-68
2021/11/03 05:28:49;;;;;;;28.90;26.37;;;5.30;99.90;;;;;;5033329;28;20536;-69
2021/11/03 05:31:19;;;;;;;29.77;26.53;;;5.30;99.90;;;;;;5036692;28;20480;-68
2021/11/03 05:33:46;;;;;;;31.33;28.53;;;5.30;99.90;;;;;;5039586;28;20467;-69
2021/11/03 05:36:18;;;;;;;29.13;26.73;;;5.30;99.90;;;;;;5030360;28;20559;-68
2021/11/03 05:38:45;;;;;;;31.70;28.33;;;5.30;99.90;;;;;;5040246;28;20485;-68
2021/11/03 05:41:13;;;;;;;34.03;27.10;;;5.30;99.90;;;;;;5033938;28;20451;-69
2021/11/03 05:43:40;;;;;;;29.70;27.20;;;5.30;99.90;;;;;;5037873;28;20543;-69
2021/11/03 05:46:07;;;;;;;31.40;28.07;;;5.40;99.90;;;;;;5042943;28;20462;-68
2021/11/03 05:48:40;;;;;;;30.20;27.23;;;5.40;99.90;;;;;;5040750;28;21031;-68
2021/11/03 05:51:09;;;;;;;29.60;27.20;;;5.40;99.90;;;;;;5040100;28;20459;-69
2021/11/03 05:53:38;;;;;;;28.33;26.13;;;5.40;99.90;;;;;;5039087;28;20963;-68
2021/11/03 05:56:05;;;;;;;30.43;27.20;;;5.30;99.90;;;;;;5041129;28;20513;-68
2021/11/03 05:58:33;;;;;;;30.60;27.40;;;5.40;99.90;;;;;;5042928;28;20463;-69
2021/11/03 06:01:00;;;;;;;29.27;26.47;;;5.30;99.90;;;;;;5045048;28;20962;-69
2021/11/03 06:03:27;;;;;;;30.37;27.37;;;5.30;99.90;;;;;;5034663;28;20475;-69
2021/11/03 06:05:55;;;;;;;30.33;27.40;;;5.40;99.90;;;;;;5035603;28;20471;-70
2021/11/03 06:08:23;;;;;;;30.73;27.80;;;5.40;99.90;;;;;;5039933;28;20490;-68
2021/11/03 06:10:53;;;;;;;33.13;30.33;;;5.40;99.90;;;;;;5039767;28;20561;-69
2021/11/03 06:13:21;;;;;;;30.90;28.23;;;5.40;99.90;;;;;;5040933;28;20472;-68
2021/11/03 06:15:49;;;;;;;32.07;28.70;;;5.40;99.90;;;;;;5041793;28;20468;-68
2021/11/03 06:18:17;;;;;;;30.07;27.57;;;5.40;99.90;;;;;;5040692;28;20499;-68
2021/11/03 06:20:44;;;;;;;29.77;27.00;;;5.50;99.90;;;;;;5037964;28;20467;-69
2021/11/03 06:23:13;;;;;;;31.10;28.20;;;5.50;99.90;;;;;;5041362;28;20460;-69
2021/11/03 06:25:40;;;;;;;32.20;29.30;;;5.50;99.90;;;;;;5049218;28;20463;-68
2021/11/03 06:28:06;;;;;;;31.23;28.33;;;5.50;99.90;;;;;;5042560;28;20974;-69
2021/11/03 06:30:37;;;;;;;30.73;27.87;;;5.60;99.90;;;;;;5042746;28;20469;-68
2021/11/03 06:33:04;;;;;;;30.73;27.73;;;5.60;99.90;;;;;;5039391;28;20962;-68
2021/11/03 06:35:34;;;;;;;31.70;28.67;;;5.60;99.90;;;;;;5042849;28;20462;-68
2021/11/03 06:38:01;;;;;;;29.50;27.03;;;5.60;99.90;;;;;;5039649;28;20479;-69
2021/11/03 06:40:29;;;;;;;30.63;28.00;;;5.70;99.90;;;;;;5040661;28;20460;-69
2021/11/03 06:42:58;;;;;;;30.40;27.70;;;5.60;99.90;;;;;;5027034;28;20464;-69
2021/11/03 06:45:27;;;;;;;37.73;29.30;;;5.60;99.90;;;;;;5036133;28;20510;-68
2021/11/03 06:47:55;;;;;;;31.50;28.60;;;5.60;99.90;;;;;;5034301;28;20571;-68
2021/11/03 06:50:25;;;;;;;31.10;28.37;;;5.60;99.90;;;;;;5029181;28;20465;-69
2021/11/03 06:52:55;;;;;;;33.63;30.30;;;5.60;99.90;;;;;;5039506;28;20835;-68
2021/11/03 06:55:22;;;;;;;31.50;28.70;;;5.70;99.90;;;;;;5035578;28;20461;-69
2021/11/03 06:57:51;;;;;;;33.33;30.13;;;5.60;99.90;;;;;;5034794;28;20467;-68
2021/11/03 07:00:22;;;;;;;34.97;31.27;;;5.60;99.90;;;;;;5032915;28;20551;-69
2021/11/03 07:02:50;;;;;;;34.23;31.00;;;5.70;99.90;;;;;;5034117;28;21050;-68
2021/11/03 07:05:17;;;;;;;33.23;29.97;;;5.70;99.90;;;;;;5036372;28;20473;-68
2021/11/03 07:07:44;;;;;;;33.97;30.63;;;5.70;99.90;;;;;;5036611;28;20497;-69
2021/11/03 07:10:21;;;;;;;32.10;28.97;;;5.60;99.90;;;;;;5039475;28;20988;-68
2021/11/03 07:12:48;;;;;;;36.50;29.50;;;5.70;99.90;;;;;;5029750;28;20455;-68
2021/11/03 07:15:16;;;;;;;32.83;29.57;;;5.70;99.90;;;;;;5031673;28;20468;-68
2021/11/03 07:17:44;;;;;;;34.00;30.27;;;5.70;99.90;;;;;;5025151;28;20478;-69
2021/11/03 07:20:11;;;;;;;34.87;29.77;;;5.70;99.90;;;;;;5024881;28;20488;-68
2021/11/03 07:22:38;;;;;;;33.23;28.80;;;5.70;99.90;;;;;;5030252;28;20472;-68
2021/11/03 07:25:06;;;;;;;33.23;29.60;;;5.70;99.90;;;;;;5035575;28;20891;-69
2021/11/03 07:27:34;;;;;;;34.80;31.17;;;5.70;99.90;;;;;;5030600;28;20509;-68
2021/11/03 07:30:01;;;;;;;32.20;28.90;;;5.80;99.90;;;;;;5036406;28;20464;-69
2021/11/03 07:32:29;;;;;;;32.33;29.20;;;5.80;99.90;;;;;;5033533;28;20837;-69
2021/11/03 07:34:57;;;;;;;33.30;29.90;;;5.80;99.90;;;;;;5033897;28;20473;-68
2021/11/03 07:37:24;;;;;;;32.40;29.20;;;5.90;99.90;;;;;;5039440;28;20533;-69
2021/11/03 07:39:51;;;;;;;31.43;28.33;;;5.90;99.90;;;;;;5039677;28;20464;-68
2021/11/03 07:42:19;;;;;;;32.47;28.40;;;5.90;99.90;;;;;;5033982;28;20459;-70
2021/11/03 07:44:46;;;;;;;31.77;28.53;;;5.90;99.90;;;;;;5035260;28;20468;-71
2021/11/03 07:47:13;;;;;;;31.17;28.10;;;5.90;99.90;;;;;;5034043;28;20523;-69
2021/11/03 07:49:41;;;;;;;31.23;28.13;;;5.90;99.90;;;;;;5034311;28;20504;-69
2021/11/03 07:52:09;;;;;;;29.83;26.83;;;5.90;99.90;;;;;;5030140;28;20868;-70
2021/11/03 07:54:37;;;;;;;34.00;29.67;;;6.00;99.90;;;;;;5032183;28;20961;-68
2021/11/03 07:57:04;;;;;;;29.90;27.10;;;6.10;99.90;;;;;;5034811;28;20469;-70
2021/11/03 07:59:31;;;;;;;31.77;28.27;;;6.10;99.90;;;;;;5029149;28;20548;-71
2021/11/03 08:01:58;;;;;;;31.93;28.60;;;6.10;99.90;;;;;;5028528;28;20560;-71
2021/11/03 08:04:25;;;;;;;29.70;26.63;;;6.20;99.90;;;;;;5030924;28;20471;-70
2021/11/03 08:06:54;;;;;;;30.50;27.30;;;6.20;99.90;;;;;;5027755;28;20989;-71
2021/11/03 08:09:21;;;;;;;32.17;28.93;;;6.20;99.90;;;;;;5033883;28;20508;-71
2021/11/03 08:11:50;;;;;;;30.57;27.53;;;6.20;99.90;;;;;;5033178;28;21156;-70
2021/11/03 08:14:19;;;;;;;28.27;25.73;;;6.30;99.90;;;;;;5036984;28;20455;-71
2021/11/03 08:16:52;;;;;;;31.03;26.80;;;6.30;99.90;;;;;;5030014;28;20476;-70
2021/11/03 08:19:19;;;;;;;29.37;26.53;;;6.40;99.90;;;;;;5033821;28;20581;-72
2021/11/03 08:21:46;;;;;;;31.53;28.33;;;6.30;99.90;;;;;;5036947;28;20477;-70
2021/11/03 08:24:15;;;;;;;30.03;27.03;;;6.40;99.90;;;;;;5031296;28;20455;-71
2021/11/03 08:26:41;;;;;;;30.07;27.07;;;6.40;99.90;;;;;;5028393;28;20472;-70
2021/11/03 08:29:08;;;;;;;29.53;26.70;;;6.40;99.90;;;;;;5035723;28;20484;-71
2021/11/03 08:31:37;;;;;;;27.57;24.70;;;6.40;99.90;;;;;;5031144;28;20460;-71
2021/11/03 08:34:04;;;;;;;29.47;26.40;;;6.30;99.90;;;;;;5031096;28;20461;-70
2021/11/03 08:36:31;;;;;;;28.93;26.00;;;6.20;99.90;;;;;;5041182;28;20459;-68
2021/11/03 08:38:59;;;;;;;29.70;26.87;;;6.30;99.90;;;;;;5035173;28;21039;-69
2021/11/03 08:41:29;;;;;;;30.23;27.13;;;6.30;99.90;;;;;;5031756;28;20874;-70
2021/11/03 08:43:56;;;;;;;30.60;27.57;;;6.40;99.90;;;;;;5026679;28;20469;-69
2021/11/03 08:46:23;;;;;;;28.83;25.93;;;6.60;99.90;;;;;;5026787;28;20819;-70
2021/11/03 08:48:51;;;;;;;25.90;23.70;;;6.60;99.90;;;;;;5035082;28;20491;-71
2021/11/03 08:51:18;;;;;;;29.43;26.40;;;6.70;99.90;;;;;;5030376;28;20466;-69
2021/11/03 08:53:45;;;;;;;28.53;25.67;;;6.70;99.90;;;;;;5027628;28;20466;-69
2021/11/03 08:56:11;;;;;;;29.20;26.17;;;6.70;99.90;;;;;;5030755;28;20472;-69
2021/11/03 08:58:40;;;;;;;27.73;24.93;;;6.70;99.90;;;;;;5032418;28;20828;-70
2021/11/03 09:01:07;;;;;;;28.07;24.40;;;6.60;99.90;;;;;;5034399;28;20460;-69
2021/11/03 09:03:35;;;;;;;28.50;25.40;;;6.60;99.90;;;;;;5033437;28;20955;-69
2021/11/03 09:06:02;;;;;;;28.03;25.10;;;6.70;99.90;;;;;;5036641;28;20461;-68
2021/11/03 09:08:29;;;;;;;26.93;24.20;;;6.70;99.90;;;;;;5029468;28;20906;-69
2021/11/03 09:11:00;;;;;;;29.80;25.07;;;6.80;99.90;;;;;;5032434;28;20472;-69
2021/11/03 09:13:29;;;;;;;28.30;24.33;;;6.80;99.90;;;;;;5035020;28;22334;-69
2021/11/03 09:15:58;;;;;;;26.80;24.00;;;7.00;99.90;;;;;;5036237;28;20842;-70
2021/11/03 09:18:26;;;;;;;26.90;24.10;;;7.00;99.90;;;;;;5036535;28;20491;-68
2021/11/03 09:20:55;;;;;;;25.77;23.07;;;7.00;99.90;;;;;;5033687;28;20461;-68
2021/11/03 09:23:23;;;;;;;27.80;25.00;;;7.00;99.90;;;;;;5038018;28;20538;-68
2021/11/03 09:25:52;;;;;;;27.83;24.73;;;7.20;99.90;;;;;;5037278;28;20467;-68
2021/11/03 09:28:19;;;;;;;27.30;24.80;;;7.30;99.90;;;;;;5038147;28;20477;-68
2021/11/03 09:30:46;;;;;;;26.83;24.10;;;7.40;99.90;;;;;;5034145;28;20470;-68
2021/11/03 09:33:15;;;;;;;29.50;26.70;;;7.40;99.90;;;;;;5039045;28;20459;-70
2021/11/03 09:35:43;;;;;;;28.63;25.63;;;7.40;99.90;;;;;;5039314;28;20825;-68
2021/11/03 09:38:13;;;;;;;29.10;24.40;;;7.50;99.90;;;;;;5036097;28;20495;-70
2021/11/03 09:40:49;;;;;;;29.53;26.80;;;7.60;99.90;;;;;;5039353;28;20468;-70
2021/11/03 09:43:35;;;;;;;28.03;25.03;;;7.70;99.90;;;;;;5042069;28;20541;-71
2021/11/03 09:46:14;;;;;;;27.30;24.60;;;7.60;99.90;;;;;;5040239;28;20550;-69
2021/11/03 09:48:42;;;;;;;27.07;24.37;;;7.60;99.90;;;;;;5034560;28;20480;-69
2021/11/03 09:51:17;;;;;;;29.47;26.33;;;7.70;99.90;;;;;;5034747;28;20650;-67
2021/11/03 09:53:48;;;;;;;32.57;27.03;;;7.80;99.90;;;;;;5034030;28;20473;-69
2021/11/03 09:56:18;;;;;;;32.53;27.90;;;7.80;99.90;;;;;;5033150;28;20459;-67
2021/11/03 09:59:09;;;;;;;34.10;30.43;;;7.60;99.90;;;;;;5040471;28;20475;-69
2021/11/03 10:01:49;;;;;;;36.97;31.33;;;7.60;99.90;;;;;;5036368;28;20953;-68
2021/11/03 10:04:49;;;;;;;35.83;32.60;;;7.60;99.90;;;;;;5042827;28;21638;-68
2021/11/03 10:07:27;;;;;;;42.63;38.07;;;7.40;99.90;;;;;;5014430;28;20959;-68
2021/11/03 10:09:54;;;;;;;40.80;36.60;;;7.50;99.90;;;;;;5027681;28;20860;-70
2021/11/03 10:12:23;;;;;;;44.57;39.20;;;7.50;99.90;;;;;;5033428;28;20824;-69
2021/11/03 10:14:52;;;;;;;48.30;39.90;;;7.60;99.90;;;;;;5032665;28;20464;-70
2021/11/03 10:17:22;;;;;;;46.70;40.20;;;7.70;99.90;;;;;;5033085;28;20466;-69
2021/11/03 10:19:52;;;;;;;41.47;37.17;;;7.80;99.90;;;;;;5035108;28;20498;-69
2021/11/03 10:22:31;;;;;;;45.37;40.60;;;7.90;99.90;;;;;;5032495;28;21245;-69
2021/11/03 10:25:05;;;;;;;42.97;39.00;;;7.90;99.90;;;;;;5039789;28;21000;-68
2021/11/03 10:27:42;;;;;;;43.83;39.27;;;8.00;99.90;;;;;;5038786;28;20486;-68
2021/11/03 10:30:30;;;;;;;43.90;39.60;;;8.10;99.90;;;;;;5038578;28;20545;-69
2021/11/03 10:32:58;;;;;;;59.07;38.40;;;8.20;99.90;;;;;;5033250;28;20588;-68
2021/11/03 10:35:34;;;;;;;43.80;39.37;;;8.30;99.90;;;;;;5033345;28;20829;-69
2021/11/03 10:38:11;;;;;;;42.23;38.00;;;8.40;99.90;;;;;;5041836;28;20493;-69
2021/11/03 10:40:47;;;;;;;44.37;40.10;;;8.40;99.90;;;;;;5035453;28;20471;-68
2021/11/03 10:43:26;;;;;;;43.90;38.33;;;8.50;99.90;;;;;;5031237;28;20557;-71
2021/11/03 10:46:04;;;;;;;42.13;37.83;;;8.50;99.90;;;;;;5035778;28;20491;-71
2021/11/03 10:48:32;;;;;;;42.43;37.90;;;8.50;99.90;;;;;;5033602;28;20484;-69
2021/11/03 10:51:14;;;;;;;39.77;35.90;;;8.50;99.90;;;;;;5033576;28;20520;-68
2021/11/03 10:54:04;;;;;;;41.93;37.53;;;8.50;99.90;;;;;;5030356;28;20539;-70
2021/11/03 10:56:34;;;;;;;39.93;36.23;;;8.50;99.90;;;;;;5028255;28;21263;-70
2021/11/03 10:59:06;;;;;;;39.60;35.73;;;8.60;99.90;;;;;;5034455;28;20477;-67
2021/11/03 11:01:37;;;;;;;39.33;35.60;;;8.30;99.90;;;;;;5036433;28;20464;-69
2021/11/03 11:04:10;;;;;;;38.40;34.60;;;8.40;99.90;;;;;;5042951;28;20463;-68
2021/11/03 11:06:42;;;;;;;39.87;36.27;;;8.50;99.90;;;;;;5035875;28;20463;-68
2021/11/03 11:09:24;;;;;;;38.23;34.80;;;8.40;99.90;;;;;;5031327;28;20522;-69
2021/11/03 11:11:57;;;;;;;38.93;35.33;;;8.40;99.90;;;;;;5036280;28;20470;-67
2021/11/03 11:14:27;;;;;;;40.27;36.23;;;8.50;99.90;;;;;;5033150;28;20466;-70
2021/11/03 11:16:57;;;;;;;42.30;38.20;;;8.50;99.90;;;;;;5044859;28;21127;-69
2021/11/03 11:19:40;;;;;;;39.00;35.30;;;8.60;99.90;;;;;;5029957;28;20629;-70
2021/11/03 11:22:27;;;;;;;38.57;35.20;;;8.50;99.90;;;;;;5034635;28;21004;-70
2021/11/03 11:25:04;;;;;;;38.30;34.70;;;8.50;99.90;;;;;;5035424;28;20470;-71
2021/11/03 11:27:36;;;;;;;38.33;34.37;;;8.50;99.90;;;;;;5034843;28;20464;-68
2021/11/03 11:30:12;;;;;;;37.73;34.23;;;8.40;99.90;;;;;;5035704;28;21033;-68
2021/11/03 11:32:55;;;;;;;36.07;32.87;;;8.40;99.90;;;;;;5031977;28;20467;-70
2021/11/03 11:35:27;;;;;;;38.33;34.17;;;8.50;99.90;;;;;;5037928;28;20470;-68
2021/11/03 11:38:07;;;;;;;37.30;33.53;;;8.30;99.90;;;;;;5037085;28;21018;-70
2021/11/03 11:40:45;;;;;;;37.83;33.87;;;8.40;99.90;;;;;;5033349;28;21034;-69
2021/11/03 11:43:22;;;;;;;37.53;33.80;;;8.40;99.90;;;;;;5034787;28;20467;-68
2021/11/03 11:45:50;;;;;;;40.20;34.70;;;8.40;99.90;;;;;;5032889;28;20494;-68
2021/11/03 11:48:28;;;;;;;38.97;34.87;;;8.40;99.90;;;;;;5038793;28;20470;-69
2021/11/03 11:50:58;;;;;;;38.57;34.77;;;8.40;99.90;;;;;;5035903;28;20505;-69
2021/11/03 11:53:33;;;;;;;39.70;36.00;;;8.30;99.90;;;;;;5026254;28;20462;-70
2021/11/03 11:56:20;;;;;;;37.43;33.67;;;8.40;99.90;;;;;;5037213;28;20466;-71
2021/11/03 11:58:51;;;;;;;35.90;32.60;;;8.20;99.90;;;;;;5034464;28;20912;-70
2021/11/03 12:01:27;;;;;;;38.83;35.03;;;8.20;99.90;;;;;;5036298;28;20533;-70
2021/11/03 12:04:23;;;;;;;40.20;35.97;;;8.30;99.90;;;;;;5035909;28;20468;-69
2021/11/03 12:07:16;;;;;;;39.87;36.07;;;8.40;99.90;;;;;;5022887;28;21007;-68
2021/11/03 12:10:04;;;;;;;39.30;35.33;;;8.40;99.90;;;;;;5029736;28;21024;-69
2021/11/03 12:12:34;;;;;;;39.73;35.83;;;8.50;99.90;;;;;;5032452;28;20551;-69
2021/11/03 12:15:02;;;;;;;41.40;36.97;;;8.50;99.90;;;;;;5037914;28;21039;-69
2021/11/03 12:17:57;;;;;;;39.20;35.07;;;8.50;99.90;;;;;;5035595;28;20552;-70
2021/11/03 12:20:52;;;;;;;40.10;36.00;;;8.50;99.90;;;;;;5039202;28;20461;-69
2021/11/03 12:23:42;;;;;;;40.83;36.63;;;8.50;99.90;;;;;;5032294;28;20473;-69
2021/11/03 12:26:38;;;;;;;39.17;35.47;;;8.60;99.90;;;;;;5030604;28;20471;-69
2021/11/03 12:29:28;;;;;;;40.00;35.70;;;8.60;99.90;;;;;;5038147;28;20485;-70
2021/11/03 12:32:00;;;;;;;42.10;35.90;;;8.60;99.90;;;;;;5033543;28;20501;-69
2021/11/03 12:34:34;;;;;;;40.40;36.40;;;8.60;99.90;;;;;;5032238;28;20474;-70
2021/11/03 12:37:31;;;;;;;40.70;36.80;;;8.70;99.90;;;;;;5026622;28;20515;-71
2021/11/03 12:40:17;;;;;;;39.43;35.63;;;8.80;99.90;;;;;;5028720;28;20456;-69
2021/11/03 12:42:56;;;;;;;41.00;36.90;;;8.90;99.90;;;;;;5034676;28;20570;-71
2021/11/03 12:45:30;;;;;;;40.87;36.33;;;8.90;99.90;;;;;;5030586;28;20582;-70
2021/11/03 12:48:02;;;;;;;40.03;35.80;;;8.80;99.90;;;;;;5028242;28;21248;-69
2021/11/03 12:50:35;;;;;;;41.40;37.23;;;8.70;99.90;;;;;;5032427;28;20489;-69
2021/11/03 12:53:12;;;;;;;42.43;37.97;;;8.60;99.90;;;;;;5036523;28;20467;-70